sensor_id;sensor_type;location;lat;lon;timestamp;temperature;humidity
4578;DHT22;2301;47.354;8.528;2024-03-08T00:00:17;12.40;84.60
4578;DHT22;2301;47.354;8.528;2024-03-08T00:02:45;12.50;84.60
4578;DHT22;2301;47.354;8.528;2024-03-08T00:05:13;12.40;84.20
4578;DHT22;2301;47.354;8.528;2024-03-08T00:07:40;12.40;83.70
4578;DHT22;2301;47.354;8.528;2024-03-08T00:10:09;12.40;84.10
4578;DHT22;2301;47.354;8.528;2024-03-08T00:12:39;12.40;83.50
4578;DHT22;2301;47.354;8.528;2024-03-08T00:15:08;12.40;83.30
4578;DHT22;2301;47.354;8.528;2024-03-08T00:17:35;12.40;83.90
4578;DHT22;2301;47.354;8.528;2024-03-08T00:20:02;12.40;83.50
4578;DHT22;2301;47.354;8.528;2024-03-08T00:22:33;12.40;83.10
4578;DHT22;2301;47.354;8.528;2024-03-08T00:25:01;12.40;82.70
4578;DHT22;2301;47.354;8.528;2024-03-08T00:27:29;12.40;82.10
4578;DHT22;2301;47.354;8.528;2024-03-08T00:29:58;12.30;82.20
4578;DHT22;2301;47.354;8.528;2024-03-08T00:32:24;12.30;82.60
4578;DHT22;2301;47.354;8.528;2024-03-08T00:34:52;12.30;82.40
4578;DHT22;2301;47.354;8.528;2024-03-08T00:37:19;12.20;81.40
4578;DHT22;2301;47.354;8.528;2024-03-08T00:39:47;12.30;82.50
4578;DHT22;2301;47.354;8.528;2024-03-08T00:42:15;12.20;81.10
4578;DHT22;2301;47.354;8.528;2024-03-08T00:44:41;12.10;81.80
4578;DHT22;2301;47.354;8.528;2024-03-08T00:47:10;12.20;82.20
4578;DHT22;2301;47.354;8.528;2024-03-08T00:49:37;12.20;82.10
4578;DHT22;2301;47.354;8.528;2024-03-08T00:52:04;12.20;80.90
4578;DHT22;2301;47.354;8.528;2024-03-08T00:54:32;12.20;82.10
4578;DHT22;2301;47.354;8.528;2024-03-08T00:56:58;12.30;82.00
4578;DHT22;2301;47.354;8.528;2024-03-08T00:59:26;12.30;81.70
4578;DHT22;2301;47.354;8.528;2024-03-08T01:01:52;12.30;81.00
4578;DHT22;2301;47.354;8.528;2024-03-08T01:04:21;12.20;80.70
4578;DHT22;2301;47.354;8.528;2024-03-08T01:06:48;12.20;80.70
4578;DHT22;2301;47.354;8.528;2024-03-08T01:09:15;12.20;80.80
4578;DHT22;2301;47.354;8.528;2024-03-08T01:11:43;12.20;80.50
4578;DHT22;2301;47.354;8.528;2024-03-08T01:14:10;12.20;80.90
4578;DHT22;2301;47.354;8.528;2024-03-08T01:16:37;12.10;79.60
4578;DHT22;2301;47.354;8.528;2024-03-08T01:19:04;12.10;80.10
4578;DHT22;2301;47.354;8.528;2024-03-08T01:21:32;12.20;80.80
4578;DHT22;2301;47.354;8.528;2024-03-08T01:24:00;12.10;80.30
4578;DHT22;2301;47.354;8.528;2024-03-08T01:26:27;12.20;80.70
4578;DHT22;2301;47.354;8.528;2024-03-08T01:28:54;12.10;80.10
4578;DHT22;2301;47.354;8.528;2024-03-08T01:31:21;12.20;80.20
4578;DHT22;2301;47.354;8.528;2024-03-08T01:33:48;12.20;80.10
4578;DHT22;2301;47.354;8.528;2024-03-08T01:36:15;12.10;79.50
4578;DHT22;2301;47.354;8.528;2024-03-08T01:38:46;12.10;79.60
4578;DHT22;2301;47.354;8.528;2024-03-08T01:41:13;12.10;79.40
4578;DHT22;2301;47.354;8.528;2024-03-08T01:43:41;12.10;79.50
4578;DHT22;2301;47.354;8.528;2024-03-08T01:46:09;12.10;79.40
4578;DHT22;2301;47.354;8.528;2024-03-08T01:48:38;12.00;79.20
4578;DHT22;2301;47.354;8.528;2024-03-08T01:51:06;12.00;79.20
4578;DHT22;2301;47.354;8.528;2024-03-08T01:53:34;12.00;79.30
4578;DHT22;2301;47.354;8.528;2024-03-08T01:56:04;12.10;79.40
4578;DHT22;2301;47.354;8.528;2024-03-08T01:58:32;12.10;78.80
4578;DHT22;2301;47.354;8.528;2024-03-08T02:01:00;12.10;78.90
4578;DHT22;2301;47.354;8.528;2024-03-08T02:03:29;12.10;79.40
4578;DHT22;2301;47.354;8.528;2024-03-08T02:05:57;12.10;79.40
4578;DHT22;2301;47.354;8.528;2024-03-08T02:08:25;12.00;78.30
4578;DHT22;2301;47.354;8.528;2024-03-08T02:10:52;12.00;79.00
4578;DHT22;2301;47.354;8.528;2024-03-08T02:13:20;12.00;78.90
4578;DHT22;2301;47.354;8.528;2024-03-08T02:15:51;12.00;78.10
4578;DHT22;2301;47.354;8.528;2024-03-08T02:18:17;12.00;79.00
4578;DHT22;2301;47.354;8.528;2024-03-08T02:20:45;12.00;78.60
4578;DHT22;2301;47.354;8.528;2024-03-08T02:23:13;12.00;78.90
4578;DHT22;2301;47.354;8.528;2024-03-08T02:25:40;12.00;78.90
4578;DHT22;2301;47.354;8.528;2024-03-08T02:28:09;12.10;78.60
4578;DHT22;2301;47.354;8.528;2024-03-08T02:30:35;12.10;78.20
4578;DHT22;2301;47.354;8.528;2024-03-08T02:33:02;12.10;78.90
4578;DHT22;2301;47.354;8.528;2024-03-08T02:35:29;12.10;78.20
4578;DHT22;2301;47.354;8.528;2024-03-08T02:37:57;12.00;78.00
4578;DHT22;2301;47.354;8.528;2024-03-08T02:40:24;12.10;78.20
4578;DHT22;2301;47.354;8.528;2024-03-08T02:42:51;12.10;78.30
4578;DHT22;2301;47.354;8.528;2024-03-08T02:45:18;12.10;78.20
4578;DHT22;2301;47.354;8.528;2024-03-08T02:47:46;12.20;78.30
4578;DHT22;2301;47.354;8.528;2024-03-08T02:50:15;12.10;77.90
4578;DHT22;2301;47.354;8.528;2024-03-08T02:52:42;12.10;77.90
4578;DHT22;2301;47.354;8.528;2024-03-08T02:55:10;12.10;78.10
4578;DHT22;2301;47.354;8.528;2024-03-08T02:57:40;12.10;77.90
4578;DHT22;2301;47.354;8.528;2024-03-08T03:00:08;12.10;78.10
4578;DHT22;2301;47.354;8.528;2024-03-08T03:02:35;12.10;78.20
4578;DHT22;2301;47.354;8.528;2024-03-08T03:05:03;12.20;78.10
4578;DHT22;2301;47.354;8.528;2024-03-08T03:07:31;12.20;78.10
4578;DHT22;2301;47.354;8.528;2024-03-08T03:09:59;12.20;77.80
4578;DHT22;2301;47.354;8.528;2024-03-08T03:12:28;12.30;77.60
4578;DHT22;2301;47.354;8.528;2024-03-08T03:14:55;12.20;77.40
4578;DHT22;2301;47.354;8.528;2024-03-08T03:17:22;12.20;76.90
4578;DHT22;2301;47.354;8.528;2024-03-08T03:19:50;12.20;77.10
4578;DHT22;2301;47.354;8.528;2024-03-08T03:22:17;12.30;77.80
4578;DHT22;2301;47.354;8.528;2024-03-08T03:24:44;12.30;77.90
4578;DHT22;2301;47.354;8.528;2024-03-08T03:27:12;12.30;77.30
4578;DHT22;2301;47.354;8.528;2024-03-08T03:29:42;12.30;77.50
4578;DHT22;2301;47.354;8.528;2024-03-08T03:32:11;12.40;77.60
4578;DHT22;2301;47.354;8.528;2024-03-08T03:34:37;12.20;75.30
4578;DHT22;2301;47.354;8.528;2024-03-08T03:37:05;12.20;77.10
4578;DHT22;2301;47.354;8.528;2024-03-08T03:39:34;12.20;77.20
4578;DHT22;2301;47.354;8.528;2024-03-08T03:42:06;12.20;77.80
4578;DHT22;2301;47.354;8.528;2024-03-08T03:44:33;12.30;77.40
4578;DHT22;2301;47.354;8.528;2024-03-08T03:47:01;12.30;76.40
4578;DHT22;2301;47.354;8.528;2024-03-08T03:49:28;12.30;77.10
4578;DHT22;2301;47.354;8.528;2024-03-08T03:51:55;12.30;76.80
4578;DHT22;2301;47.354;8.528;2024-03-08T03:54:22;12.30;77.10
4578;DHT22;2301;47.354;8.528;2024-03-08T03:56:48;12.30;76.40
4578;DHT22;2301;47.354;8.528;2024-03-08T03:59:18;12.40;77.30
4578;DHT22;2301;47.354;8.528;2024-03-08T04:01:45;12.40;76.90
4578;DHT22;2301;47.354;8.528;2024-03-08T04:04:13;12.40;76.90
4578;DHT22;2301;47.354;8.528;2024-03-08T04:06:40;12.50;76.90
4578;DHT22;2301;47.354;8.528;2024-03-08T04:09:07;12.50;76.20
4578;DHT22;2301;47.354;8.528;2024-03-08T04:11:34;12.50;76.00
4578;DHT22;2301;47.354;8.528;2024-03-08T04:14:01;12.60;76.80
4578;DHT22;2301;47.354;8.528;2024-03-08T04:16:29;12.60;76.50
4578;DHT22;2301;47.354;8.528;2024-03-08T04:18:55;12.60;76.60
4578;DHT22;2301;47.354;8.528;2024-03-08T04:21:23;12.60;75.60
4578;DHT22;2301;47.354;8.528;2024-03-08T04:23:50;12.60;76.10
4578;DHT22;2301;47.354;8.528;2024-03-08T04:26:17;12.50;76.10
4578;DHT22;2301;47.354;8.528;2024-03-08T04:28:44;12.60;76.20
4578;DHT22;2301;47.354;8.528;2024-03-08T04:31:11;12.60;76.20
4578;DHT22;2301;47.354;8.528;2024-03-08T04:33:37;12.70;76.60
4578;DHT22;2301;47.354;8.528;2024-03-08T04:36:05;12.70;76.20
4578;DHT22;2301;47.354;8.528;2024-03-08T04:38:34;12.70;75.80
4578;DHT22;2301;47.354;8.528;2024-03-08T04:41:01;12.70;75.90
4578;DHT22;2301;47.354;8.528;2024-03-08T04:43:29;12.70;75.70
4578;DHT22;2301;47.354;8.528;2024-03-08T04:45:56;12.70;76.60
4578;DHT22;2301;47.354;8.528;2024-03-08T04:48:22;12.80;76.30
4578;DHT22;2301;47.354;8.528;2024-03-08T04:50:52;12.70;75.70
4578;DHT22;2301;47.354;8.528;2024-03-08T04:53:19;12.70;75.30
4578;DHT22;2301;47.354;8.528;2024-03-08T04:55:47;12.70;74.40
4578;DHT22;2301;47.354;8.528;2024-03-08T04:58:14;12.60;73.90
4578;DHT22;2301;47.354;8.528;2024-03-08T05:00:42;12.50;74.60
4578;DHT22;2301;47.354;8.528;2024-03-08T05:03:08;12.50;74.80
4578;DHT22;2301;47.354;8.528;2024-03-08T05:05:35;12.50;75.30
4578;DHT22;2301;47.354;8.528;2024-03-08T05:08:02;12.60;75.30
4578;DHT22;2301;47.354;8.528;2024-03-08T05:10:31;12.60;75.20
4578;DHT22;2301;47.354;8.528;2024-03-08T05:12:59;12.60;75.00
4578;DHT22;2301;47.354;8.528;2024-03-08T05:15:26;12.60;75.60
4578;DHT22;2301;47.354;8.528;2024-03-08T05:17:53;12.70;75.70
4578;DHT22;2301;47.354;8.528;2024-03-08T05:20:21;12.60;74.70
4578;DHT22;2301;47.354;8.528;2024-03-08T05:22:48;12.60;74.40
4578;DHT22;2301;47.354;8.528;2024-03-08T05:25:15;12.50;73.90
4578;DHT22;2301;47.354;8.528;2024-03-08T05:27:43;12.50;74.70
4578;DHT22;2301;47.354;8.528;2024-03-08T05:30:11;12.50;74.60
4578;DHT22;2301;47.354;8.528;2024-03-08T05:32:40;12.40;74.40
4578;DHT22;2301;47.354;8.528;2024-03-08T05:35:10;12.40;74.80
4578;DHT22;2301;47.354;8.528;2024-03-08T05:37:37;12.50;75.30
4578;DHT22;2301;47.354;8.528;2024-03-08T05:40:06;12.50;75.40
4578;DHT22;2301;47.354;8.528;2024-03-08T05:42:35;12.60;75.70
4578;DHT22;2301;47.354;8.528;2024-03-08T05:45:03;12.70;76.40
4578;DHT22;2301;47.354;8.528;2024-03-08T05:47:31;12.70;74.80
4578;DHT22;2301;47.354;8.528;2024-03-08T05:49:58;12.80;74.70
4578;DHT22;2301;47.354;8.528;2024-03-08T05:52:25;12.70;73.90
4578;DHT22;2301;47.354;8.528;2024-03-08T05:54:52;12.70;73.50
4578;DHT22;2301;47.354;8.528;2024-03-08T05:57:19;12.60;73.80
4578;DHT22;2301;47.354;8.528;2024-03-08T05:59:48;12.60;73.80
4578;DHT22;2301;47.354;8.528;2024-03-08T06:02:16;12.60;73.90
4578;DHT22;2301;47.354;8.528;2024-03-08T06:04:52;12.60;74.50
4578;DHT22;2301;47.354;8.528;2024-03-08T06:07:22;12.50;73.30
4578;DHT22;2301;47.354;8.528;2024-03-08T06:09:49;12.40;74.10
4578;DHT22;2301;47.354;8.528;2024-03-08T06:12:15;12.50;74.90
4578;DHT22;2301;47.354;8.528;2024-03-08T06:14:44;12.50;74.90
4578;DHT22;2301;47.354;8.528;2024-03-08T06:17:11;12.60;75.00
4578;DHT22;2301;47.354;8.528;2024-03-08T06:19:38;12.60;74.30
4578;DHT22;2301;47.354;8.528;2024-03-08T06:22:06;12.70;75.80
4578;DHT22;2301;47.354;8.528;2024-03-08T06:24:34;12.70;77.40
4578;DHT22;2301;47.354;8.528;2024-03-08T06:27:02;12.70;78.10
4578;DHT22;2301;47.354;8.528;2024-03-08T06:29:29;12.80;80.70
4578;DHT22;2301;47.354;8.528;2024-03-08T06:31:56;12.80;82.60
4578;DHT22;2301;47.354;8.528;2024-03-08T06:34:23;12.80;82.80
4578;DHT22;2301;47.354;8.528;2024-03-08T06:36:49;12.80;83.70
4578;DHT22;2301;47.354;8.528;2024-03-08T06:39:19;12.80;82.90
4578;DHT22;2301;47.354;8.528;2024-03-08T06:41:46;12.80;82.50
4578;DHT22;2301;47.354;8.528;2024-03-08T06:44:13;12.90;82.30
4578;DHT22;2301;47.354;8.528;2024-03-08T06:46:39;12.90;81.30
4578;DHT22;2301;47.354;8.528;2024-03-08T06:49:06;12.90;80.70
4578;DHT22;2301;47.354;8.528;2024-03-08T06:51:34;12.90;79.20
4578;DHT22;2301;47.354;8.528;2024-03-08T06:54:01;12.80;78.40
4578;DHT22;2301;47.354;8.528;2024-03-08T06:56:35;12.80;78.60
4578;DHT22;2301;47.354;8.528;2024-03-08T06:59:02;12.80;78.40
4578;DHT22;2301;47.354;8.528;2024-03-08T07:01:29;13.00;78.10
4578;DHT22;2301;47.354;8.528;2024-03-08T07:03:57;12.60;70.40
4578;DHT22;2301;47.354;8.528;2024-03-08T07:06:25;12.20;67.00
4578;DHT22;2301;47.354;8.528;2024-03-08T07:08:51;11.70;65.70
4578;DHT22;2301;47.354;8.528;2024-03-08T07:11:18;11.30;65.50
4578;DHT22;2301;47.354;8.528;2024-03-08T07:13:46;10.90;65.60
4578;DHT22;2301;47.354;8.528;2024-03-08T07:16:13;10.60;66.00
4578;DHT22;2301;47.354;8.528;2024-03-08T07:18:41;10.30;67.20
4578;DHT22;2301;47.354;8.528;2024-03-08T07:21:09;10.10;66.90
4578;DHT22;2301;47.354;8.528;2024-03-08T07:23:35;9.90;68.20
4578;DHT22;2301;47.354;8.528;2024-03-08T07:26:29;9.70;68.30
4578;DHT22;2301;47.354;8.528;2024-03-08T07:28:58;9.40;68.70
4578;DHT22;2301;47.354;8.528;2024-03-08T07:31:26;9.30;68.70
4578;DHT22;2301;47.354;8.528;2024-03-08T07:34:03;9.00;68.80
4578;DHT22;2301;47.354;8.528;2024-03-08T07:36:33;8.90;69.60
4578;DHT22;2301;47.354;8.528;2024-03-08T07:39:00;8.70;70.20
4578;DHT22;2301;47.354;8.528;2024-03-08T07:41:27;8.60;70.70
4578;DHT22;2301;47.354;8.528;2024-03-08T07:43:54;8.60;71.30
4578;DHT22;2301;47.354;8.528;2024-03-08T07:46:22;8.50;71.70
4578;DHT22;2301;47.354;8.528;2024-03-08T07:48:49;8.50;71.90
4578;DHT22;2301;47.354;8.528;2024-03-08T07:51:17;8.40;72.20
4578;DHT22;2301;47.354;8.528;2024-03-08T07:53:44;8.40;72.50
4578;DHT22;2301;47.354;8.528;2024-03-08T07:56:11;8.30;72.60
4578;DHT22;2301;47.354;8.528;2024-03-08T07:58:39;8.30;73.60
4578;DHT22;2301;47.354;8.528;2024-03-08T08:01:07;8.30;73.00
4578;DHT22;2301;47.354;8.528;2024-03-08T08:03:35;8.20;73.50
4578;DHT22;2301;47.354;8.528;2024-03-08T08:06:04;8.20;73.60
4578;DHT22;2301;47.354;8.528;2024-03-08T08:08:30;8.10;73.60
4578;DHT22;2301;47.354;8.528;2024-03-08T08:10:57;8.10;73.90
4578;DHT22;2301;47.354;8.528;2024-03-08T08:13:25;8.10;74.50
4578;DHT22;2301;47.354;8.528;2024-03-08T08:15:53;8.00;74.00
4578;DHT22;2301;47.354;8.528;2024-03-08T08:18:20;8.00;74.00
4578;DHT22;2301;47.354;8.528;2024-03-08T08:20:51;8.00;74.40
4578;DHT22;2301;47.354;8.528;2024-03-08T08:23:18;8.00;74.50
4578;DHT22;2301;47.354;8.528;2024-03-08T08:25:46;8.00;74.60
4578;DHT22;2301;47.354;8.528;2024-03-08T08:28:15;8.00;74.90
4578;DHT22;2301;47.354;8.528;2024-03-08T08:30:43;8.00;74.60
4578;DHT22;2301;47.354;8.528;2024-03-08T08:33:10;8.00;74.60
4578;DHT22;2301;47.354;8.528;2024-03-08T08:35:37;8.00;74.90
4578;DHT22;2301;47.354;8.528;2024-03-08T08:38:05;8.00;74.90
4578;DHT22;2301;47.354;8.528;2024-03-08T08:40:32;8.00;75.00
4578;DHT22;2301;47.354;8.528;2024-03-08T08:43:01;8.00;74.70
4578;DHT22;2301;47.354;8.528;2024-03-08T08:45:30;7.90;74.60
4578;DHT22;2301;47.354;8.528;2024-03-08T08:47:56;7.90;74.90
4578;DHT22;2301;47.354;8.528;2024-03-08T08:50:25;7.90;74.90
4578;DHT22;2301;47.354;8.528;2024-03-08T08:52:54;7.90;75.30
4578;DHT22;2301;47.354;8.528;2024-03-08T08:55:22;7.90;75.30
4578;DHT22;2301;47.354;8.528;2024-03-08T08:57:51;8.00;75.20
4578;DHT22;2301;47.354;8.528;2024-03-08T09:00:18;7.90;75.20
4578;DHT22;2301;47.354;8.528;2024-03-08T09:02:46;7.90;75.00
4578;DHT22;2301;47.354;8.528;2024-03-08T09:05:13;7.90;74.90
4578;DHT22;2301;47.354;8.528;2024-03-08T09:07:42;7.90;74.90
4578;DHT22;2301;47.354;8.528;2024-03-08T09:10:10;7.90;75.60
4578;DHT22;2301;47.354;8.528;2024-03-08T09:12:39;8.00;75.20
4578;DHT22;2301;47.354;8.528;2024-03-08T09:15:06;8.00;74.90
4578;DHT22;2301;47.354;8.528;2024-03-08T09:17:36;8.00;75.20
4578;DHT22;2301;47.354;8.528;2024-03-08T09:20:06;8.10;75.00
4578;DHT22;2301;47.354;8.528;2024-03-08T09:22:33;8.10;75.00
4578;DHT22;2301;47.354;8.528;2024-03-08T09:24:59;8.10;75.60
4578;DHT22;2301;47.354;8.528;2024-03-08T09:27:26;8.20;75.20
4578;DHT22;2301;47.354;8.528;2024-03-08T09:29:55;8.20;75.00
4578;DHT22;2301;47.354;8.528;2024-03-08T09:32:21;8.20;75.00
4578;DHT22;2301;47.354;8.528;2024-03-08T09:34:48;8.30;75.10
4578;DHT22;2301;47.354;8.528;2024-03-08T09:37:15;8.40;75.50
4578;DHT22;2301;47.354;8.528;2024-03-08T09:39:43;8.70;76.00
4578;DHT22;2301;47.354;8.528;2024-03-08T09:42:11;9.10;76.20
4578;DHT22;2301;47.354;8.528;2024-03-08T09:44:44;9.40;74.90
4578;DHT22;2301;47.354;8.528;2024-03-08T09:47:16;9.40;73.20
4578;DHT22;2301;47.354;8.528;2024-03-08T09:49:47;9.40;73.40
4578;DHT22;2301;47.354;8.528;2024-03-08T09:52:16;9.50;73.80
4578;DHT22;2301;47.354;8.528;2024-03-08T09:54:46;9.60;73.70
4578;DHT22;2301;47.354;8.528;2024-03-08T09:57:16;9.80;74.20
4578;DHT22;2301;47.354;8.528;2024-03-08T09:59:47;10.00;73.20
4578;DHT22;2301;47.354;8.528;2024-03-08T10:02:19;10.10;72.90
4578;DHT22;2301;47.354;8.528;2024-03-08T10:04:48;10.30;72.70
4578;DHT22;2301;47.354;8.528;2024-03-08T10:07:16;10.40;72.10
4578;DHT22;2301;47.354;8.528;2024-03-08T10:09:43;10.60;72.30
4578;DHT22;2301;47.354;8.528;2024-03-08T10:12:15;11.00;72.70
4578;DHT22;2301;47.354;8.528;2024-03-08T10:14:42;11.50;72.30
4578;DHT22;2301;47.354;8.528;2024-03-08T10:17:10;11.80;71.10
4578;DHT22;2301;47.354;8.528;2024-03-08T10:19:38;12.00;70.30
4578;DHT22;2301;47.354;8.528;2024-03-08T10:22:05;12.20;68.40
4578;DHT22;2301;47.354;8.528;2024-03-08T10:24:32;12.10;66.00
4578;DHT22;2301;47.354;8.528;2024-03-08T10:27:00;12.30;66.50
4578;DHT22;2301;47.354;8.528;2024-03-08T10:29:30;12.50;65.10
4578;DHT22;2301;47.354;8.528;2024-03-08T10:31:57;12.70;65.30
4578;DHT22;2301;47.354;8.528;2024-03-08T10:34:24;12.80;64.80
4578;DHT22;2301;47.354;8.528;2024-03-08T10:36:53;13.00;64.50
4578;DHT22;2301;47.354;8.528;2024-03-08T10:39:28;13.10;62.70
4578;DHT22;2301;47.354;8.528;2024-03-08T10:42:02;13.20;62.40
4578;DHT22;2301;47.354;8.528;2024-03-08T10:44:40;13.30;62.10
4578;DHT22;2301;47.354;8.528;2024-03-08T10:47:15;13.60;62.90
4578;DHT22;2301;47.354;8.528;2024-03-08T10:49:51;13.90;63.20
4578;DHT22;2301;47.354;8.528;2024-03-08T10:52:21;14.30;63.20
4578;DHT22;2301;47.354;8.528;2024-03-08T10:54:48;14.70;62.10
4578;DHT22;2301;47.354;8.528;2024-03-08T10:57:18;15.10;60.90
4578;DHT22;2301;47.354;8.528;2024-03-08T10:59:47;15.30;59.00
4578;DHT22;2301;47.354;8.528;2024-03-08T11:02:16;15.30;58.50
4578;DHT22;2301;47.354;8.528;2024-03-08T11:04:48;15.40;58.30
4578;DHT22;2301;47.354;8.528;2024-03-08T11:07:16;15.40;58.10
4578;DHT22;2301;47.354;8.528;2024-03-08T11:09:49;15.50;58.20
4578;DHT22;2301;47.354;8.528;2024-03-08T11:12:23;15.70;57.60
4578;DHT22;2301;47.354;8.528;2024-03-08T11:14:55;15.80;56.80
4578;DHT22;2301;47.354;8.528;2024-03-08T11:20:11;16.00;55.70
4578;DHT22;2301;47.354;8.528;2024-03-08T11:22:50;16.00;54.20
4578;DHT22;2301;47.354;8.528;2024-03-08T11:25:38;16.00;54.50
4578;DHT22;2301;47.354;8.528;2024-03-08T11:28:14;16.00;54.40
4578;DHT22;2301;47.354;8.528;2024-03-08T11:30:44;16.10;55.10
4578;DHT22;2301;47.354;8.528;2024-03-08T11:33:13;16.20;55.10
4578;DHT22;2301;47.354;8.528;2024-03-08T11:35:40;16.20;54.40
4578;DHT22;2301;47.354;8.528;2024-03-08T11:38:12;16.10;54.10
4578;DHT22;2301;47.354;8.528;2024-03-08T11:40:41;16.20;53.90
4578;DHT22;2301;47.354;8.528;2024-03-08T11:43:08;16.10;53.60
4578;DHT22;2301;47.354;8.528;2024-03-08T11:45:36;16.10;54.30
4578;DHT22;2301;47.354;8.528;2024-03-08T11:48:04;16.10;53.40
4578;DHT22;2301;47.354;8.528;2024-03-08T11:50:30;16.20;53.50
4578;DHT22;2301;47.354;8.528;2024-03-08T11:53:02;16.20;53.70
4578;DHT22;2301;47.354;8.528;2024-03-08T11:55:29;16.20;53.20
4578;DHT22;2301;47.354;8.528;2024-03-08T11:58:03;16.30;53.10
4578;DHT22;2301;47.354;8.528;2024-03-08T12:00:30;16.40;53.50
4578;DHT22;2301;47.354;8.528;2024-03-08T12:03:07;16.40;53.40
4578;DHT22;2301;47.354;8.528;2024-03-08T12:05:35;16.40;53.00
4578;DHT22;2301;47.354;8.528;2024-03-08T12:08:05;16.50;53.20
4578;DHT22;2301;47.354;8.528;2024-03-08T12:10:33;16.50;52.90
4578;DHT22;2301;47.354;8.528;2024-03-08T12:13:03;16.50;52.60
4578;DHT22;2301;47.354;8.528;2024-03-08T12:15:37;16.50;52.70
4578;DHT22;2301;47.354;8.528;2024-03-08T12:18:04;16.60;52.90
4578;DHT22;2301;47.354;8.528;2024-03-08T12:20:32;16.60;52.70
4578;DHT22;2301;47.354;8.528;2024-03-08T12:22:59;16.50;52.20
4578;DHT22;2301;47.354;8.528;2024-03-08T12:25:27;16.50;52.20
4578;DHT22;2301;47.354;8.528;2024-03-08T12:28:06;16.50;52.20
4578;DHT22;2301;47.354;8.528;2024-03-08T12:30:35;16.40;52.20
4578;DHT22;2301;47.354;8.528;2024-03-08T12:33:04;16.40;52.20
4578;DHT22;2301;47.354;8.528;2024-03-08T12:35:36;16.20;51.20
4578;DHT22;2301;47.354;8.528;2024-03-08T12:38:03;16.30;52.10
4578;DHT22;2301;47.354;8.528;2024-03-08T12:40:32;16.30;51.90
4578;DHT22;2301;47.354;8.528;2024-03-08T12:43:00;16.20;51.80
4578;DHT22;2301;47.354;8.528;2024-03-08T12:45:28;16.10;52.30
4578;DHT22;2301;47.354;8.528;2024-03-08T12:47:56;16.20;52.50
4578;DHT22;2301;47.354;8.528;2024-03-08T12:50:24;16.30;52.40
4578;DHT22;2301;47.354;8.528;2024-03-08T12:52:51;16.30;52.10
4578;DHT22;2301;47.354;8.528;2024-03-08T12:55:19;16.20;51.50
4578;DHT22;2301;47.354;8.528;2024-03-08T12:57:45;16.20;52.50
4578;DHT22;2301;47.354;8.528;2024-03-08T13:00:13;16.20;52.70
4578;DHT22;2301;47.354;8.528;2024-03-08T13:02:44;16.20;52.70
4578;DHT22;2301;47.354;8.528;2024-03-08T13:05:12;16.20;52.90
4578;DHT22;2301;47.354;8.528;2024-03-08T13:07:40;16.30;53.30
4578;DHT22;2301;47.354;8.528;2024-03-08T13:10:12;16.20;52.20
4578;DHT22;2301;47.354;8.528;2024-03-08T13:12:40;16.10;51.90
4578;DHT22;2301;47.354;8.528;2024-03-08T13:15:07;16.10;52.50
4578;DHT22;2301;47.354;8.528;2024-03-08T13:17:37;16.10;52.00
4578;DHT22;2301;47.354;8.528;2024-03-08T13:20:07;16.00;52.30
4578;DHT22;2301;47.354;8.528;2024-03-08T13:22:36;16.00;52.40
4578;DHT22;2301;47.354;8.528;2024-03-08T13:25:03;15.90;52.50
4578;DHT22;2301;47.354;8.528;2024-03-08T13:27:30;15.90;51.80
4578;DHT22;2301;47.354;8.528;2024-03-08T13:29:57;15.70;51.30
4578;DHT22;2301;47.354;8.528;2024-03-08T13:32:24;15.60;51.60
4578;DHT22;2301;47.354;8.528;2024-03-08T13:34:52;15.60;51.60
4578;DHT22;2301;47.354;8.528;2024-03-08T13:37:19;15.40;50.70
4578;DHT22;2301;47.354;8.528;2024-03-08T13:39:47;15.40;52.30
4578;DHT22;2301;47.354;8.528;2024-03-08T13:42:14;15.40;52.40
4578;DHT22;2301;47.354;8.528;2024-03-08T13:44:45;15.30;52.30
4578;DHT22;2301;47.354;8.528;2024-03-08T13:47:13;15.20;51.60
4578;DHT22;2301;47.354;8.528;2024-03-08T13:49:41;15.10;52.20
4578;DHT22;2301;47.354;8.528;2024-03-08T13:52:09;15.10;52.70
4578;DHT22;2301;47.354;8.528;2024-03-08T13:54:38;15.00;52.90
4578;DHT22;2301;47.354;8.528;2024-03-08T13:57:06;15.00;52.60
4578;DHT22;2301;47.354;8.528;2024-03-08T13:59:33;15.00;53.00
4578;DHT22;2301;47.354;8.528;2024-03-08T14:02:01;15.00;53.00
4578;DHT22;2301;47.354;8.528;2024-03-08T14:04:28;15.10;53.40
4578;DHT22;2301;47.354;8.528;2024-03-08T14:06:55;15.00;53.20
4578;DHT22;2301;47.354;8.528;2024-03-08T14:09:27;14.90;52.90
4578;DHT22;2301;47.354;8.528;2024-03-08T14:11:54;14.80;53.30
4578;DHT22;2301;47.354;8.528;2024-03-08T14:14:22;14.80;53.10
4578;DHT22;2301;47.354;8.528;2024-03-08T14:16:49;14.70;53.00
4578;DHT22;2301;47.354;8.528;2024-03-08T14:19:18;14.70;53.00
4578;DHT22;2301;47.354;8.528;2024-03-08T14:21:45;14.50;52.80
4578;DHT22;2301;47.354;8.528;2024-03-08T14:24:14;14.50;54.10
4578;DHT22;2301;47.354;8.528;2024-03-08T14:26:41;14.50;53.80
4578;DHT22;2301;47.354;8.528;2024-03-08T14:29:08;14.50;54.00
4578;DHT22;2301;47.354;8.528;2024-03-08T14:31:37;14.60;54.10
4578;DHT22;2301;47.354;8.528;2024-03-08T14:34:04;14.50;53.60
4578;DHT22;2301;47.354;8.528;2024-03-08T14:36:32;14.40;53.60
4578;DHT22;2301;47.354;8.528;2024-03-08T14:38:59;14.40;53.80
4578;DHT22;2301;47.354;8.528;2024-03-08T14:41:26;14.40;53.60
4578;DHT22;2301;47.354;8.528;2024-03-08T14:43:53;14.20;53.60
4578;DHT22;2301;47.354;8.528;2024-03-08T14:46:20;14.10;54.40
4578;DHT22;2301;47.354;8.528;2024-03-08T14:48:50;14.00;53.80
4578;DHT22;2301;47.354;8.528;2024-03-08T14:51:17;14.00;53.90
4578;DHT22;2301;47.354;8.528;2024-03-08T14:53:46;13.90;53.90
4578;DHT22;2301;47.354;8.528;2024-03-08T14:56:14;13.80;53.80
4578;DHT22;2301;47.354;8.528;2024-03-08T14:58:42;13.80;54.30
4578;DHT22;2301;47.354;8.528;2024-03-08T15:01:09;13.80;54.60
4578;DHT22;2301;47.354;8.528;2024-03-08T15:03:39;13.80;54.60
4578;DHT22;2301;47.354;8.528;2024-03-08T15:06:07;13.80;54.70
4578;DHT22;2301;47.354;8.528;2024-03-08T15:08:35;13.80;54.20
4578;DHT22;2301;47.354;8.528;2024-03-08T15:11:03;13.80;54.20
4578;DHT22;2301;47.354;8.528;2024-03-08T15:13:31;13.70;54.10
4578;DHT22;2301;47.354;8.528;2024-03-08T15:16:05;13.70;54.50
4578;DHT22;2301;47.354;8.528;2024-03-08T15:18:34;13.80;54.70
4578;DHT22;2301;47.354;8.528;2024-03-08T15:21:06;13.70;54.90
4578;DHT22;2301;47.354;8.528;2024-03-08T15:23:34;13.70;54.70
4578;DHT22;2301;47.354;8.528;2024-03-08T15:26:01;13.70;54.80
4578;DHT22;2301;47.354;8.528;2024-03-08T15:28:29;13.60;54.40
4578;DHT22;2301;47.354;8.528;2024-03-08T15:31:03;13.60;54.20
4578;DHT22;2301;47.354;8.528;2024-03-08T15:33:32;13.40;54.20
4578;DHT22;2301;47.354;8.528;2024-03-08T15:35:59;13.20;54.00
4578;DHT22;2301;47.354;8.528;2024-03-08T15:38:34;13.10;54.40
4578;DHT22;2301;47.354;8.528;2024-03-08T15:41:01;13.00;54.60
4578;DHT22;2301;47.354;8.528;2024-03-08T15:43:32;13.00;55.10
4578;DHT22;2301;47.354;8.528;2024-03-08T15:46:02;12.90;55.40
4578;DHT22;2301;47.354;8.528;2024-03-08T15:48:30;12.90;55.50
4578;DHT22;2301;47.354;8.528;2024-03-08T15:50:58;12.90;55.50
4578;DHT22;2301;47.354;8.528;2024-03-08T15:53:27;12.90;55.80
4578;DHT22;2301;47.354;8.528;2024-03-08T15:55:57;13.00;56.10
4578;DHT22;2301;47.354;8.528;2024-03-08T15:58:24;12.90;55.90
4578;DHT22;2301;47.354;8.528;2024-03-08T16:00:51;12.90;56.00
4578;DHT22;2301;47.354;8.528;2024-03-08T16:03:19;12.80;56.00
4578;DHT22;2301;47.354;8.528;2024-03-08T16:05:46;12.80;56.10
4578;DHT22;2301;47.354;8.528;2024-03-08T16:08:14;12.60;56.10
4578;DHT22;2301;47.354;8.528;2024-03-08T16:10:42;12.60;56.40
4578;DHT22;2301;47.354;8.528;2024-03-08T16:13:13;12.40;56.40